createdAt,value
2019-02-25T00:00:15.353Z,3.80
2019-02-25T00:02:59.943Z,3.80
2019-02-25T00:05:45.316Z,3.80
2019-02-25T00:08:30.597Z,3.90
2019-02-25T00:11:15.701Z,3.90
2019-02-25T00:14:01.062Z,3.90
2019-02-25T00:16:45.798Z,3.80
2019-02-25T00:19:30.565Z,3.80
2019-02-25T00:22:15.600Z,3.70
2019-02-25T00:25:01.263Z,3.70
2019-02-25T00:27:46.311Z,3.60
2019-02-25T00:30:31.290Z,3.70
2019-02-25T00:33:16.447Z,3.70
2019-02-25T00:36:01.129Z,3.70
2019-02-25T00:38:46.567Z,3.70
2019-02-25T00:41:31.859Z,3.60
2019-02-25T00:44:16.678Z,3.60
2019-02-25T00:47:01.553Z,3.60
2019-02-25T00:49:47.264Z,3.60
2019-02-25T00:52:32.607Z,3.50
2019-02-25T00:55:17.859Z,3.40
2019-02-25T00:58:03.266Z,3.30
2019-02-25T01:00:50.041Z,3.40
2019-02-25T01:03:35.388Z,3.40
2019-02-25T01:06:20.069Z,3.40
2019-02-25T01:09:05.904Z,3.40
2019-02-25T01:11:50.563Z,3.30
2019-02-25T01:14:35.809Z,3.30
2019-02-25T01:17:21.054Z,3.10
2019-02-25T01:20:09.100Z,3.00
2019-02-25T01:22:54.296Z,2.90
2019-02-25T01:25:39.348Z,2.90
2019-02-25T01:28:24.587Z,2.90
2019-02-25T01:31:09.628Z,3.00
2019-02-25T01:33:54.403Z,2.90
2019-02-25T01:36:39.353Z,2.90
2019-02-25T01:39:24.146Z,2.80
2019-02-25T01:42:11.118Z,2.60
2019-02-25T01:44:56.247Z,2.60
2019-02-25T01:47:41.421Z,2.50
2019-02-25T01:50:26.669Z,2.50
2019-02-25T01:53:12.245Z,2.60
2019-02-25T01:55:57.186Z,2.60
2019-02-25T01:58:42.101Z,2.60
2019-02-25T02:01:26.883Z,2.70
2019-02-25T02:04:11.816Z,2.70
2019-02-25T02:06:57.032Z,2.60
2019-02-25T02:09:42.186Z,2.50
2019-02-25T02:12:27.350Z,2.40
2019-02-25T02:15:15.472Z,2.30
2019-02-25T02:18:00.902Z,2.30
2019-02-25T02:20:46.018Z,2.30
2019-02-25T02:23:31.048Z,2.30
2019-02-25T02:26:15.696Z,2.30
2019-02-25T02:29:00.511Z,2.40
2019-02-25T02:31:45.274Z,2.40
2019-02-25T02:34:30.046Z,2.40
2019-02-25T02:37:16.843Z,2.30
2019-02-25T02:40:03.471Z,2.20
2019-02-25T02:42:58.942Z,2.20
2019-02-25T02:45:51.041Z,2.20
2019-02-25T02:48:45.721Z,2.20
2019-02-25T02:51:30.619Z,2.10
2019-02-25T02:54:15.699Z,2.00
2019-02-25T02:57:00.441Z,2.10
2019-02-25T02:59:45.283Z,2.10
2019-02-25T03:02:30.102Z,2.00
2019-02-25T03:05:15.682Z,2.00
2019-02-25T03:08:01.076Z,1.90
2019-02-25T03:10:46.237Z,1.80
2019-02-25T03:13:31.600Z,1.90
2019-02-25T03:16:16.767Z,1.90
2019-02-25T03:19:02.113Z,1.90
2019-02-25T03:21:47.251Z,1.90
2019-02-25T03:24:32.188Z,1.90
2019-02-25T03:27:17.631Z,1.90
2019-02-25T03:30:06.648Z,1.90
2019-02-25T03:32:51.501Z,1.90
2019-02-25T03:35:36.782Z,1.80
2019-02-25T03:38:21.435Z,1.80
2019-02-25T03:41:06.694Z,1.80
2019-02-25T03:43:52.384Z,1.80
2019-02-25T03:46:37.349Z,1.70
2019-02-25T03:49:22.387Z,1.60
2019-02-25T03:52:07.399Z,1.50
2019-02-25T03:54:53.014Z,1.50
2019-02-25T03:57:40.100Z,1.40
2019-02-25T04:00:25.447Z,1.40
2019-02-25T04:03:10.210Z,1.30
2019-02-25T04:05:54.976Z,1.30
2019-02-25T04:08:41.721Z,1.20
2019-02-25T04:11:26.792Z,1.20
2019-02-25T04:14:12.281Z,1.10
2019-02-25T04:16:57.307Z,1.10
2019-02-25T04:19:42.295Z,1.10
2019-02-25T04:22:26.952Z,1.10
2019-02-25T04:25:12.279Z,1.20
2019-02-25T04:27:57.485Z,1.30
2019-02-25T04:30:42.852Z,1.40
2019-02-25T04:33:27.685Z,1.50
2019-02-25T04:36:12.553Z,1.50
2019-02-25T04:38:57.421Z,1.50
2019-02-25T04:41:41.977Z,1.40
2019-02-25T04:44:26.876Z,1.40
2019-02-25T04:47:11.853Z,1.40
2019-02-25T04:49:56.998Z,1.40
2019-02-25T04:52:42.425Z,1.40
2019-02-25T04:55:27.339Z,1.40
2019-02-25T04:58:12.318Z,1.40
2019-02-25T05:00:57.791Z,1.40
2019-02-25T05:03:42.810Z,1.40
2019-02-25T05:06:27.550Z,1.20
2019-02-25T05:09:12.418Z,1.30
2019-02-25T05:11:58.074Z,1.20
2019-02-25T05:14:43.131Z,1.20
2019-02-25T05:17:29.444Z,1.10
2019-02-25T05:20:14.593Z,1.00
2019-02-25T05:22:59.589Z,1.00
2019-02-25T05:25:44.567Z,0.90
2019-02-25T05:28:29.270Z,1.00
2019-02-25T05:31:14.603Z,1.00
2019-02-25T05:33:59.488Z,1.00
2019-02-25T05:36:44.490Z,1.10
2019-02-25T05:39:29.178Z,1.00
2019-02-25T05:42:14.505Z,0.90
2019-02-25T05:44:59.394Z,0.80
2019-02-25T05:47:45.366Z,0.80
2019-02-25T05:50:30.719Z,0.80
2019-02-25T05:53:16.081Z,0.80
2019-02-25T05:56:02.318Z,0.70
2019-02-25T05:58:47.163Z,0.70
2019-02-25T06:01:31.974Z,0.80
2019-02-25T06:04:17.080Z,0.70
2019-02-25T06:07:02.154Z,0.70
2019-02-25T06:09:47.721Z,0.70
2019-02-25T06:12:32.520Z,0.60
2019-02-25T06:15:18.136Z,0.60
2019-02-25T06:18:03.062Z,0.70
2019-02-25T06:20:48.966Z,0.90
2019-02-25T06:23:34.326Z,1.00
2019-02-25T06:26:20.411Z,1.10
2019-02-25T06:29:05.296Z,1.20
2019-02-25T06:31:50.027Z,1.30
2019-02-25T06:34:34.834Z,1.30
2019-02-25T06:37:20.112Z,1.30
2019-02-25T06:40:10.956Z,1.40
2019-02-25T06:42:56.072Z,1.40
2019-02-25T06:45:41.508Z,1.30
2019-02-25T06:48:26.155Z,1.20
2019-02-25T06:51:11.022Z,1.10
2019-02-25T06:53:55.921Z,1.20
2019-02-25T06:56:40.884Z,1.20
2019-02-25T06:59:25.766Z,1.30
2019-02-25T07:02:10.622Z,1.40
2019-02-25T07:04:58.865Z,1.40
2019-02-25T07:07:58.462Z,1.40
2019-02-25T07:10:54.506Z,1.40
2019-02-25T07:13:47.085Z,1.40
2019-02-25T07:16:39.737Z,1.40
2019-02-25T07:19:35.750Z,1.40
2019-02-25T07:22:22.517Z,1.40
2019-02-25T07:25:26.407Z,1.40
2019-02-25T07:28:13.577Z,1.50
2019-02-25T07:31:12.351Z,1.50
2019-02-25T07:34:11.458Z,1.60
2019-02-25T07:37:15.226Z,1.60
2019-02-25T07:40:02.018Z,1.80
2019-02-25T07:43:05.531Z,1.90
2019-02-25T07:45:57.991Z,2.00
2019-02-25T07:48:47.507Z,2.20
2019-02-25T07:51:36.800Z,2.40
2019-02-25T07:54:23.456Z,2.60
2019-02-25T07:57:22.480Z,2.70
2019-02-25T08:00:11.161Z,2.80
2019-02-25T08:03:01.166Z,2.90
2019-02-25T08:06:03.141Z,3.10
2019-02-25T08:09:06.987Z,3.30
2019-02-25T08:11:53.694Z,3.50
2019-02-25T08:14:44.903Z,3.80
2019-02-25T08:17:40.557Z,4.00
2019-02-25T08:20:30.272Z,4.20
2019-02-25T08:23:23.295Z,4.40
2019-02-25T08:26:13.271Z,4.60
2019-02-25T08:29:02.637Z,4.80
2019-02-25T08:31:49.322Z,5.00
2019-02-25T08:34:45.230Z,5.20
2019-02-25T08:37:57.281Z,5.40
2019-02-25T08:40:47.010Z,5.60
2019-02-25T08:43:40.095Z,5.80
2019-02-25T08:46:27.384Z,6.00
2019-02-25T08:49:20.221Z,6.20
2019-02-25T08:52:05.130Z,6.40
2019-02-25T08:54:50.515Z,6.70
2019-02-25T08:57:35.510Z,6.80
2019-02-25T09:00:20.805Z,7.00
2019-02-25T09:03:05.467Z,7.20
2019-02-25T09:05:51.780Z,7.40
2019-02-25T09:08:36.653Z,7.50
2019-02-25T09:11:21.537Z,7.70
2019-02-25T09:14:06.947Z,8.00
2019-02-25T09:16:52.162Z,8.20
2019-02-25T09:19:37.626Z,8.40
2019-02-25T09:22:22.786Z,8.70
2019-02-25T09:25:12.548Z,8.90
2019-02-25T09:27:57.571Z,9.10
2019-02-25T09:30:42.527Z,9.30
2019-02-25T09:33:27.380Z,9.50
2019-02-25T09:36:12.297Z,9.70
2019-02-25T09:38:57.490Z,9.90
2019-02-25T09:41:42.526Z,10.10
2019-02-25T09:44:27.535Z,10.30
2019-02-25T09:47:12.546Z,10.50
2019-02-25T09:49:57.862Z,10.70
2019-02-25T09:52:42.630Z,10.90
2019-02-25T09:55:27.684Z,11.00
2019-02-25T09:58:12.870Z,11.20
2019-02-25T10:00:57.696Z,11.30
2019-02-25T10:03:43.131Z,11.40
2019-02-25T10:06:28.285Z,11.50
2019-02-25T10:09:13.525Z,11.60
2019-02-25T10:11:58.900Z,11.80
2019-02-25T10:14:44.165Z,11.90
2019-02-25T10:17:29.125Z,11.90
2019-02-25T10:20:14.472Z,12.00
2019-02-25T10:22:59.740Z,12.10
2019-02-25T10:25:44.630Z,12.20
2019-02-25T10:28:29.870Z,12.30
2019-02-25T10:31:15.802Z,12.40
2019-02-25T10:34:01.807Z,12.50
2019-02-25T10:36:48.207Z,12.60
2019-02-25T10:39:33.959Z,12.60
2019-02-25T10:42:18.951Z,12.70
2019-02-25T10:45:08.996Z,12.70
2019-02-25T10:47:58.443Z,12.70
2019-02-25T10:50:41.241Z,12.80
2019-02-25T10:53:26.642Z,12.90
2019-02-25T10:56:16.717Z,13.00
2019-02-25T10:59:03.974Z,13.00
2019-02-25T11:01:49.880Z,13.20
2019-02-25T11:04:34.985Z,13.20
2019-02-25T11:07:20.133Z,13.40
2019-02-25T11:10:09.693Z,13.50
2019-02-25T11:12:55.513Z,13.70
2019-02-25T11:15:42.385Z,13.70
2019-02-25T11:18:28.770Z,13.80
2019-02-25T11:21:14.132Z,13.90
2019-02-25T11:23:59.484Z,14.00
2019-02-25T11:26:44.619Z,14.10
2019-02-25T11:29:29.540Z,14.20
2019-02-25T11:32:14.989Z,14.30
2019-02-25T11:35:01.468Z,14.30
2019-02-25T11:37:47.091Z,14.50
2019-02-25T11:40:33.674Z,14.60
2019-02-25T11:43:21.364Z,14.70
2019-02-25T11:46:05.937Z,14.80
2019-02-25T11:48:50.974Z,14.90
2019-02-25T11:51:35.783Z,15.00
2019-02-25T11:54:21.156Z,15.10
2019-02-25T11:57:06.294Z,15.20
2019-02-25T11:59:52.891Z,15.30
2019-02-25T12:02:38.271Z,15.40
2019-02-25T12:05:23.393Z,15.50
2019-02-25T12:08:08.414Z,15.60
2019-02-25T12:10:53.748Z,15.80
2019-02-25T12:13:38.950Z,16.00
2019-02-25T12:16:23.871Z,16.20
2019-02-25T12:19:17.577Z,16.50
2019-02-25T12:21:56.125Z,16.60
2019-02-25T12:24:40.761Z,17.00
2019-02-25T12:27:25.714Z,17.30
2019-02-25T12:30:21.959Z,17.70
2019-02-25T12:33:07.094Z,18.30
2019-02-25T12:35:52.614Z,18.80
2019-02-25T12:38:37.594Z,19.40
2019-02-25T12:41:23.880Z,19.70
2019-02-25T12:44:09.349Z,19.80
2019-02-25T12:46:55.279Z,19.70
2019-02-25T12:49:40.534Z,19.40
2019-02-25T12:52:26.024Z,19.30
2019-02-25T12:55:12.420Z,19.10
2019-02-25T12:57:57.750Z,19.10
2019-02-25T13:00:42.938Z,19.30
2019-02-25T13:03:28.391Z,19.60
2019-02-25T13:06:13.378Z,19.90
2019-02-25T13:08:58.434Z,19.60
2019-02-25T13:11:43.631Z,19.80
2019-02-25T13:14:28.679Z,19.90
2019-02-25T13:17:15.600Z,20.10
2019-02-25T13:20:00.509Z,20.20
2019-02-25T13:22:45.651Z,20.40
2019-02-25T13:25:31.196Z,20.70
2019-02-25T13:28:16.340Z,20.60
2019-02-25T13:31:03.256Z,20.50
2019-02-25T13:33:48.805Z,20.70
2019-02-25T13:36:33.750Z,20.20
2019-02-25T13:39:19.104Z,20.30
2019-02-25T13:42:04.664Z,19.90
2019-02-25T13:44:49.742Z,20.20
2019-02-25T13:47:35.249Z,20.60
2019-02-25T13:50:20.477Z,20.80
2019-02-25T13:53:05.615Z,21.10
2019-02-25T13:55:50.967Z,21.30
2019-02-25T13:58:36.429Z,21.50
2019-02-25T14:01:22.195Z,21.70
2019-02-25T14:04:09.544Z,21.90
2019-02-25T14:06:55.749Z,21.20
2019-02-25T14:09:41.011Z,20.70
2019-02-25T14:12:27.780Z,20.60
2019-02-25T14:15:23.825Z,20.80
2019-02-25T14:18:09.890Z,20.40
2019-02-25T14:20:55.094Z,19.80
2019-02-25T14:23:40.532Z,19.70
2019-02-25T14:26:25.864Z,19.90
2019-02-25T14:29:11.038Z,19.80
2019-02-25T14:31:56.483Z,19.70
2019-02-25T14:34:44.318Z,19.70
2019-02-25T14:37:28.725Z,20.00
2019-02-25T14:40:18.769Z,20.00
2019-02-25T14:43:05.871Z,19.90
2019-02-25T14:45:53.955Z,19.70
2019-02-25T14:48:37.164Z,19.70
2019-02-25T14:51:23.845Z,19.70
2019-02-25T14:54:08.879Z,19.90
2019-02-25T14:56:54.741Z,19.80
2019-02-25T14:59:41.533Z,19.70
2019-02-25T15:02:26.689Z,19.60
2019-02-25T15:05:13.041Z,19.60
2019-02-25T15:07:58.749Z,19.50
2019-02-25T15:10:43.982Z,19.30
2019-02-25T15:13:30.337Z,19.30
2019-02-25T15:16:16.874Z,19.10
2019-02-25T15:19:02.230Z,19.20
2019-02-25T15:21:47.508Z,19.20
2019-02-25T15:24:34.210Z,19.20
2019-02-25T15:27:19.694Z,19.30
2019-02-25T15:30:18.667Z,19.40
2019-02-25T15:33:04.759Z,19.50
2019-02-25T15:35:49.990Z,19.60
2019-02-25T15:38:36.952Z,19.40
2019-02-25T15:41:22.129Z,19.30
2019-02-25T15:44:08.995Z,19.20
2019-02-25T15:46:54.993Z,19.10
2019-02-25T15:49:40.669Z,19.10
2019-02-25T15:52:27.572Z,18.90
2019-02-25T15:55:16.809Z,18.60
2019-02-25T15:58:01.883Z,18.30
2019-02-25T16:00:47.175Z,18.00
2019-02-25T16:03:34.445Z,17.70
2019-02-25T16:06:19.438Z,17.50
2019-02-25T16:09:06.285Z,17.40
2019-02-25T16:11:52.500Z,17.20
2019-02-25T16:14:39.375Z,17.00
2019-02-25T16:17:24.493Z,16.80
2019-02-25T16:20:17.549Z,16.60
2019-02-25T16:23:05.856Z,16.50
2019-02-25T16:25:53.169Z,16.30
2019-02-25T16:28:39.912Z,16.20
2019-02-25T16:31:26.444Z,16.00
2019-02-25T16:34:14.642Z,15.90
2019-02-25T16:37:00.392Z,15.70
2019-02-25T16:39:46.166Z,15.50
2019-02-25T16:42:32.371Z,15.40
2019-02-25T16:45:21.643Z,15.20
2019-02-25T16:48:06.856Z,15.10
2019-02-25T16:50:51.955Z,14.90
2019-02-25T16:53:39.055Z,14.80
2019-02-25T16:56:24.201Z,14.60
2019-02-25T16:59:11.030Z,14.40
2019-02-25T17:01:58.069Z,14.20
2019-02-25T17:04:43.290Z,13.90
2019-02-25T17:07:28.226Z,13.80
2019-02-25T17:10:24.119Z,13.60
2019-02-25T17:13:08.107Z,13.40
2019-02-25T17:15:54.248Z,13.10
2019-02-25T17:18:39.438Z,12.90
2019-02-25T17:21:26.551Z,12.80
2019-02-25T17:24:12.016Z,12.60
2019-02-25T17:26:56.988Z,12.40
2019-02-25T17:29:42.874Z,12.30
2019-02-25T17:32:27.922Z,12.10
2019-02-25T17:35:15.203Z,12.00
2019-02-25T17:38:01.284Z,11.80
2019-02-25T17:40:47.381Z,11.70
2019-02-25T17:43:34.245Z,11.70
2019-02-25T17:46:19.903Z,11.60
2019-02-25T17:49:07.862Z,11.50
2019-02-25T17:51:55.408Z,11.30
2019-02-25T17:54:40.520Z,11.20
2019-02-25T17:57:27.350Z,11.00
2019-02-25T18:00:25.589Z,10.90
2019-02-25T18:03:12.962Z,10.80
2019-02-25T18:06:00.586Z,10.60
2019-02-25T18:08:46.313Z,10.50
2019-02-25T18:11:31.426Z,10.40
2019-02-25T18:14:19.712Z,10.30
2019-02-25T18:17:05.995Z,10.20
2019-02-25T18:19:54.407Z,10.10
2019-02-25T18:22:39.986Z,10.00
2019-02-25T18:25:25.414Z,9.90
2019-02-25T18:28:12.663Z,9.80
2019-02-25T18:30:59.643Z,9.70
2019-02-25T18:33:46.818Z,9.60
2019-02-25T18:36:33.198Z,9.50
2019-02-25T18:39:18.583Z,9.40
2019-02-25T18:42:04.033Z,9.30
2019-02-25T18:44:51.119Z,9.20
2019-02-25T18:47:36.648Z,9.20
2019-02-25T18:50:24.132Z,9.10
2019-02-25T18:53:10.805Z,9.00
2019-02-25T18:55:56.762Z,8.90
2019-02-25T18:58:42.370Z,8.80
2019-02-25T19:01:28.363Z,8.80
2019-02-25T19:04:15.428Z,8.70
2019-02-25T19:07:01.957Z,8.60
2019-02-25T19:09:49.346Z,8.60
2019-02-25T19:12:35.781Z,8.50
2019-02-25T19:15:21.011Z,8.40
2019-02-25T19:18:06.934Z,8.40
2019-02-25T19:20:53.300Z,8.30
2019-02-25T19:23:39.558Z,8.20
2019-02-25T19:26:25.470Z,8.20
2019-02-25T19:29:12.510Z,8.10
2019-02-25T19:32:00.618Z,8.10
2019-02-25T19:34:44.666Z,8.00
2019-02-25T19:37:32.926Z,8.00
2019-02-25T19:40:21.860Z,8.00
2019-02-25T19:43:07.360Z,7.90
2019-02-25T19:45:52.759Z,7.90
2019-02-25T19:48:38.739Z,7.80
2019-02-25T19:51:25.345Z,7.80
2019-02-25T19:54:11.663Z,7.70
2019-02-25T19:56:58.302Z,7.70
2019-02-25T19:59:46.262Z,7.60
2019-02-25T20:02:32.237Z,7.60
2019-02-25T20:05:19.362Z,7.50
2019-02-25T20:08:05.316Z,7.40
2019-02-25T20:10:54.343Z,7.40
2019-02-25T20:13:38.301Z,7.20
2019-02-25T20:16:28.099Z,7.20
2019-02-25T20:19:12.615Z,7.10
2019-02-25T20:21:57.965Z,7.10
2019-02-25T20:24:45.986Z,7.10
2019-02-25T20:27:30.324Z,7.00
2019-02-25T20:30:19.652Z,7.00
2019-02-25T20:33:06.825Z,6.90
2019-02-25T20:35:55.821Z,6.90
2019-02-25T20:38:40.259Z,6.80
2019-02-25T20:41:26.733Z,6.80
2019-02-25T20:44:13.741Z,6.70
2019-02-25T20:47:00.128Z,6.60
2019-02-25T20:49:49.293Z,6.40
2019-02-25T20:52:34.059Z,6.40
2019-02-25T20:55:20.858Z,6.30
2019-02-25T20:58:05.938Z,6.30
2019-02-25T21:00:51.343Z,6.30
2019-02-25T21:03:36.583Z,6.30
2019-02-25T21:06:21.947Z,6.30
2019-02-25T21:09:08.912Z,6.20
2019-02-25T21:11:54.128Z,6.10
2019-02-25T21:14:41.133Z,6.10
2019-02-25T21:17:28.441Z,5.90
2019-02-25T21:20:14.829Z,5.90
2019-02-25T21:23:04.857Z,5.80
2019-02-25T21:25:46.744Z,5.70
2019-02-25T21:28:33.696Z,5.70
2019-02-25T21:31:21.373Z,5.60
2019-02-25T21:34:06.603Z,5.60
2019-02-25T21:36:54.216Z,5.60
2019-02-25T21:39:40.787Z,5.60
2019-02-25T21:42:26.864Z,5.70
2019-02-25T21:45:18.035Z,5.70
2019-02-25T21:48:04.778Z,5.70
2019-02-25T21:50:49.812Z,5.70
2019-02-25T21:53:35.096Z,5.60
2019-02-25T21:56:22.277Z,5.60
2019-02-25T21:59:08.354Z,5.50
2019-02-25T22:01:55.729Z,5.40
2019-02-25T22:04:43.074Z,5.40
2019-02-25T22:07:29.456Z,5.40
2019-02-25T22:10:16.132Z,5.50
2019-02-25T22:13:04.375Z,5.50
2019-02-25T22:15:48.775Z,5.40
2019-02-25T22:18:36.361Z,5.30
2019-02-25T22:21:21.574Z,5.40
2019-02-25T22:24:08.087Z,5.30
2019-02-25T22:26:54.252Z,5.30
2019-02-25T22:29:41.272Z,5.30
2019-02-25T22:32:27.491Z,5.30
2019-02-25T22:35:14.983Z,5.20
2019-02-25T22:38:02.329Z,5.10
2019-02-25T22:40:48.105Z,5.00
2019-02-25T22:43:33.320Z,5.00
2019-02-25T22:46:20.780Z,5.00
2019-02-25T22:49:07.253Z,5.00
2019-02-25T22:51:55.799Z,5.00
2019-02-25T22:54:41.757Z,5.00
2019-02-25T22:57:27.864Z,4.90
2019-02-25T23:00:49.078Z,4.90
2019-02-25T23:03:34.521Z,4.90
2019-02-25T23:06:23.645Z,4.90
2019-02-25T23:09:12.234Z,4.90
2019-02-25T23:11:56.594Z,4.90
2019-02-25T23:14:42.877Z,4.90
2019-02-25T23:17:31.110Z,4.90
2019-02-25T23:20:15.023Z,4.80
2019-02-25T23:23:04.113Z,4.80
2019-02-25T23:25:49.107Z,4.80
2019-02-25T23:28:34.021Z,4.70
2019-02-25T23:31:18.681Z,4.60
2019-02-25T23:34:05.614Z,4.60
2019-02-25T23:36:51.661Z,4.50
2019-02-25T23:39:38.401Z,4.50
2019-02-25T23:42:25.847Z,4.40
2019-02-25T23:45:12.980Z,4.30
2019-02-25T23:48:00.209Z,4.30
2019-02-25T23:50:47.960Z,4.30
2019-02-25T23:53:35.128Z,4.30
2019-02-25T23:56:22.733Z,4.30
2019-02-25T23:59:10.733Z,4.30
